»·PEaware :: TWA306 KSFO-KLAX

TWA306 :: KSFO-KLAX

FLIGHT INFORMATION

Flight Status: Arrived
Operator:
Trans World Airlines
More flights by this operator :: More flights under this callsign
Pilot: Ben F. (2808)
Aircraft: BOEING 727-200
(B722)
More flights by this aircraft type
Origin: KSFO San Francisco Intl
United States
Destination: KLAX Los Angeles Intl
United States
More flights between these airports :: More routes between these airports
Route: + AVE SADDE8
File this flight plan on PilotEdge
Remarks:
Altitude:
(Current/Filed)
31,000ft
Speed:
(Current/Filed)
492kts
Departed: 15-Sep-18 01:38 PM
Arrived: 15-Sep-18 02:46 PM
Distance/Time
Traveled:
293nm/1:08
Distance/Time
To Go:
Arrived

Flight Plot

Page will automatically refresh every two minutes.

Flight plan parsing failed; only flown route is shown


Map Options




Map Legend


Flown Route
Filed Route
Departure Airport
Arrival Airport
Navaid (VOR, NDB)
Fix

Horizontal Profiles

Position Reports

Time Latitude Longitude Heading Altitude Ground
Speed
15-Sep-18 13:23 37.618358 -122.382035 139 25ft 0kts
15-Sep-18 13:24 37.618358 -122.382035 139 25ft 0kts
15-Sep-18 13:25 37.618358 -122.382035 139 25ft 0kts
15-Sep-18 13:26 37.618358 -122.382035 139 25ft 0kts
15-Sep-18 13:27 37.618363 -122.382041 139 25ft 1kts
15-Sep-18 13:28 37.618539 -122.382626 63 25ft 2kts
15-Sep-18 13:29 37.618407 -122.382810 37 25ft 0kts
15-Sep-18 13:30 37.618407 -122.382810 37 25ft 0kts
15-Sep-18 13:31 37.618407 -122.382810 37 25ft 0kts
15-Sep-18 13:32 37.618431 -122.382787 37 25ft 1kts
15-Sep-18 13:33 37.619013 -122.382338 27 25ft 0kts
15-Sep-18 13:34 37.619224 -122.382181 36 25ft 9kts
15-Sep-18 13:35 37.617218 -122.375236 114 25ft 27kts
15-Sep-18 13:36 37.613211 -122.366741 118 25ft 29kts
15-Sep-18 13:37 37.610593 -122.359500 62 25ft 8kts
15-Sep-18 13:38 37.610990 -122.359036 31 25ft 0kts
15-Sep-18 13:39 37.611046 -122.358994 30 25ft 3kts
15-Sep-18 13:40 37.620215 -122.377979 297 225ft 159kts
15-Sep-18 13:41 37.642367 -122.430007 294 2457ft 194kts
15-Sep-18 13:42 37.664377 -122.503582 262 4821ft 258kts
15-Sep-18 13:43 37.610712 -122.569312 215 8633ft 266kts
15-Sep-18 13:44 37.546417 -122.623375 215 11087ft 302kts
15-Sep-18 13:45 37.474926 -122.684967 211 13766ft 321kts
15-Sep-18 13:46 37.386038 -122.681557 171 16132ft 344kts
15-Sep-18 13:47 37.291365 -122.656980 171 18413ft 354kts
15-Sep-18 13:48 37.194082 -122.631529 172 20394ft 365kts
15-Sep-18 13:49 37.093634 -122.605318 172 22150ft 374kts
15-Sep-18 13:50 36.991190 -122.578640 172 23743ft 382kts
15-Sep-18 13:51 36.888738 -122.551984 172 25104ft 389kts
15-Sep-18 13:52 36.781887 -122.524245 173 26353ft 396kts
15-Sep-18 13:53 36.673367 -122.496149 173 27442ft 404kts
15-Sep-18 13:54 36.562802 -122.467604 173 28419ft 411kts
15-Sep-18 13:55 36.461851 -122.401625 131 29180ft 449kts
15-Sep-18 13:56 36.407470 -122.266298 116 29830ft 466kts
15-Sep-18 13:57 36.358792 -122.116651 117 30496ft 472kts
15-Sep-18 13:58 36.309953 -121.965329 117 31047ft 479kts
15-Sep-18 13:59 36.259372 -121.809250 117 31051ft 498kts
15-Sep-18 14:00 36.207106 -121.648362 116 31046ft 511kts
15-Sep-18 14:01 36.153607 -121.484415 116 30992ft 518kts
15-Sep-18 14:02 36.099316 -121.319111 117 30976ft 521kts
15-Sep-18 14:03 36.045040 -121.154934 117 30975ft 518kts
15-Sep-18 14:04 35.990886 -120.991950 120 30958ft 512kts
15-Sep-18 14:05 35.937118 -120.831425 120 30958ft 506kts
15-Sep-18 14:06 35.886249 -120.680162 120 30975ft 501kts
15-Sep-18 14:07 35.833385 -120.523745 120 30976ft 501kts
15-Sep-18 14:08 35.779536 -120.365245 120 30978ft 505kts
15-Sep-18 14:09 35.726796 -120.210782 121 30966ft 508kts
15-Sep-18 14:10 35.672749 -120.053414 121 30950ft 511kts
15-Sep-18 14:11 35.601700 -119.943731 150 30943ft 473kts
15-Sep-18 14:12 35.496518 -119.848713 153 30926ft 471kts
15-Sep-18 14:13 35.389610 -119.756179 153 30916ft 473kts
15-Sep-18 14:14 35.282194 -119.663755 153 30913ft 475kts
15-Sep-18 14:15 35.174786 -119.571888 153 30167ft 460kts
15-Sep-18 14:16 35.072692 -119.485034 153 28135ft 440kts
15-Sep-18 14:17 34.974657 -119.401866 152 26133ft 424kts
15-Sep-18 14:18 34.888938 -119.329336 152 24313ft 411kts
15-Sep-18 14:19 34.816281 -119.267981 151 22747ft 401kts
15-Sep-18 14:20 34.745240 -119.208133 151 21182ft 393kts
15-Sep-18 14:21 34.657094 -119.134049 151 19196ft 384kts
15-Sep-18 14:22 34.571090 -119.061594 150 17214ft 376kts
15-Sep-18 14:23 34.486258 -118.990296 149 15231ft 369kts
15-Sep-18 14:24 34.403348 -118.920779 149 13287ft 362kts
15-Sep-18 14:25 34.316963 -118.868104 165 11999ft 330kts
15-Sep-18 14:26 34.237195 -118.837947 167 11987ft 282kts
15-Sep-18 14:27 34.165942 -118.811686 167 11652ft 261kts
15-Sep-18 14:28 34.098652 -118.787015 168 10630ft 251kts
15-Sep-18 14:29 34.040528 -118.746907 112 10015ft 270kts
15-Sep-18 14:30 34.030518 -118.655414 102 9792ft 290kts
15-Sep-18 14:31 34.020943 -118.564060 100 7790ft 260kts
15-Sep-18 14:32 34.016383 -118.480477 80 6998ft 280kts
15-Sep-18 14:33 34.029872 -118.390057 81 6034ft 279kts
15-Sep-18 14:34 34.040658 -118.312327 82 5022ft 247kts
15-Sep-18 14:35 34.049237 -118.250634 82 4970ft 217kts
15-Sep-18 14:36 34.059074 -118.184127 82 4963ft 211kts
15-Sep-18 14:37 34.067481 -118.115723 108 4910ft 215kts
15-Sep-18 14:38 34.018333 -118.075508 155 3654ft 218kts
15-Sep-18 14:39 33.971665 -118.046161 153 3473ft 185kts
15-Sep-18 14:40 33.924241 -118.035190 228 3493ft 194kts
15-Sep-18 14:41 33.929940 -118.098376 287 3458ft 201kts
15-Sep-18 14:42 33.952038 -118.153714 292 3482ft 166kts
15-Sep-18 14:43 33.955909 -118.206899 264 3084ft 171kts
15-Sep-18 14:44 33.951115 -118.256921 260 2227ft 142kts
15-Sep-18 14:45 33.945448 -118.303324 262 1444ft 133kts
15-Sep-18 14:46 33.941024 -118.346929 262 759ft 133kts
15-Sep-18 14:47 33.936684 -118.389477 261 140ft 118kts
15-Sep-18 14:48 33.936120 -118.403263 289 139ft 0kts
15-Sep-18 14:49 33.936120 -118.403263 289 139ft 0kts
15-Sep-18 14:50 33.936120 -118.403263 289 139ft 0kts
15-Sep-18 14:51 33.936120 -118.403263 289 139ft 0kts
15-Sep-18 14:52 33.936319 -118.408786 328 139ft 20kts
15-Sep-18 14:53 33.938855 -118.407354 83 139ft 13kts
15-Sep-18 14:54 33.940319 -118.405650 302 139ft 6kts
15-Sep-18 14:55 33.940372 -118.406013 270 139ft 0kts

Navigation Log

Ident Type
Flight plan parsing failed, navigation log unavailable